Bromont, Canada
Current Conditions -  °F | °C
As of 3:15 PM on Thursday 23 Oct 2014 (Local Time) from KFSO Reporting Station
Moderate Rain Moderate Rain  
Wind Chill: 37°   Ceiling: 500
Heat Index: 43°   Visibility: 2mi
Dew Point: 42°   Wind: 13mph
Humidity: 97%   Direction: 360°N
Pressure: 29.94"   Gusts: 18mph
Location:  45.32°N, 72.67°W
Report Text: KFSO 231915Z AUTO 36011G16KT 2SM RA BKN005 OVC010 06/06 A2994 RMK AO2 T00630058
Loading
Personal Weather Stations






























Interactive Weather Map
Tropical Storm Tracking
New forecast layout! Learn more

10-Day Weather Forecast

Advertisements
Track Severe Weather on mobile